createdAt,value
2019-04-16T00:01:13.885Z,37.50
2019-04-16T00:03:41.634Z,39.77
2019-04-16T00:06:09.970Z,38.67
2019-04-16T00:08:41.265Z,34.80
2019-04-16T00:11:09.740Z,44.60
2019-04-16T00:13:38.154Z,42.00
2019-04-16T00:16:04.678Z,38.20
2019-04-16T00:18:31.175Z,37.57
2019-04-16T00:20:59.530Z,35.37
2019-04-16T00:23:31.089Z,36.87
2019-04-16T00:25:58.496Z,36.53
2019-04-16T00:28:25.290Z,36.50
2019-04-16T00:30:51.650Z,36.27
2019-04-16T00:33:18.414Z,34.00
2019-04-16T00:35:46.609Z,37.30
2019-04-16T00:38:13.126Z,37.53
2019-04-16T00:40:40.134Z,38.07
2019-04-16T00:43:06.782Z,32.40
2019-04-16T00:45:33.443Z,34.20
2019-04-16T00:48:00.038Z,33.83
2019-04-16T00:50:26.543Z,32.87
2019-04-16T00:52:52.992Z,34.37
2019-04-16T00:55:19.554Z,32.17
2019-04-16T00:57:48.519Z,32.20
2019-04-16T01:00:14.862Z,34.87
2019-04-16T01:02:41.751Z,35.37
2019-04-16T01:05:08.297Z,43.97
2019-04-16T01:07:35.000Z,35.20
2019-04-16T01:10:01.692Z,33.40
2019-04-16T01:12:28.197Z,39.13
2019-04-16T01:14:58.865Z,32.80
2019-04-16T01:17:23.377Z,34.37
2019-04-16T01:19:49.861Z,36.67
2019-04-16T01:22:17.279Z,33.57
2019-04-16T01:24:43.656Z,36.10
2019-04-16T01:27:10.157Z,38.73
2019-04-16T01:29:36.610Z,38.07
2019-04-16T01:32:10.318Z,33.17
2019-04-16T01:34:47.150Z,36.20
2019-04-16T01:37:14.340Z,31.83
2019-04-16T01:39:47.405Z,32.67
2019-04-16T01:42:11.111Z,38.37
2019-04-16T01:44:38.125Z,33.83
2019-04-16T01:47:05.333Z,34.83
2019-04-16T01:49:31.941Z,34.83
2019-04-16T01:51:58.685Z,31.53
2019-04-16T01:54:25.293Z,36.03
2019-04-16T01:56:51.905Z,33.83
2019-04-16T01:59:18.610Z,34.93
2019-04-16T02:01:45.181Z,34.60
2019-04-16T02:04:11.598Z,31.90
2019-04-16T02:06:38.114Z,37.13
2019-04-16T02:09:05.381Z,34.97
2019-04-16T02:11:31.885Z,39.07
2019-04-16T02:13:58.329Z,37.80
2019-04-16T02:16:25.180Z,37.23
2019-04-16T02:18:52.491Z,34.50
2019-04-16T02:21:19.051Z,37.13
2019-04-16T02:23:48.136Z,38.50
2019-04-16T02:26:14.277Z,38.07
2019-04-16T02:28:40.775Z,36.97
2019-04-16T02:31:13.723Z,36.43
2019-04-16T02:33:35.690Z,36.87
2019-04-16T02:36:02.829Z,36.13
2019-04-16T02:38:29.432Z,35.77
2019-04-16T02:40:56.031Z,35.43
2019-04-16T02:43:22.613Z,32.37
2019-04-16T02:45:49.276Z,37.60
2019-04-16T02:48:17.328Z,34.83
2019-04-16T02:50:48.599Z,35.17
2019-04-16T02:53:33.801Z,37.47
2019-04-16T02:56:08.261Z,37.53
2019-04-16T02:58:39.955Z,39.53
2019-04-16T03:01:08.629Z,37.37
2019-04-16T03:03:36.696Z,41.17
2019-04-16T03:06:03.159Z,35.73
2019-04-16T03:08:29.373Z,39.37
2019-04-16T03:10:55.501Z,39.63
2019-04-16T03:13:23.326Z,37.80
2019-04-16T03:16:09.825Z,39.00
2019-04-16T03:18:40.793Z,43.40
2019-04-16T03:21:07.011Z,36.67
2019-04-16T03:23:36.819Z,39.13
2019-04-16T03:26:01.248Z,35.73
2019-04-16T03:28:28.096Z,38.03
2019-04-16T03:30:54.393Z,37.30
2019-04-16T03:33:20.633Z,35.43
2019-04-16T03:35:46.951Z,37.93
2019-04-16T03:38:13.141Z,39.97
2019-04-16T03:40:39.273Z,41.27
2019-04-16T03:43:05.559Z,36.90
2019-04-16T03:45:31.786Z,39.20
2019-04-16T03:47:58.094Z,39.97
2019-04-16T03:50:24.208Z,38.47
2019-04-16T03:52:50.399Z,39.90
2019-04-16T03:55:16.632Z,43.63
2019-04-16T03:57:42.750Z,36.47
2019-04-16T04:00:12.246Z,44.57
2019-04-16T04:02:37.402Z,39.63
2019-04-16T04:05:06.497Z,42.37
2019-04-16T04:07:32.355Z,36.50
2019-04-16T04:09:58.803Z,37.83
2019-04-16T04:12:27.683Z,37.27
2019-04-16T04:14:54.252Z,36.50
2019-04-16T04:17:21.140Z,41.03
2019-04-16T04:19:47.256Z,45.37
2019-04-16T04:22:13.468Z,35.80
2019-04-16T04:24:39.628Z,35.50
2019-04-16T04:27:05.755Z,42.20
2019-04-16T04:29:31.861Z,37.87
2019-04-16T04:32:03.136Z,39.30
2019-04-16T04:34:25.996Z,37.87
2019-04-16T04:36:52.241Z,36.40
2019-04-16T04:39:18.526Z,35.83
2019-04-16T04:41:44.723Z,34.37
2019-04-16T04:44:10.818Z,41.27
2019-04-16T04:46:37.073Z,36.47
2019-04-16T04:49:03.335Z,37.37
2019-04-16T04:51:29.438Z,38.33
2019-04-16T04:53:55.604Z,34.97
2019-04-16T04:56:27.716Z,37.43
2019-04-16T04:58:51.762Z,38.63
2019-04-16T05:01:17.891Z,37.00
2019-04-16T05:03:49.007Z,33.37
2019-04-16T05:06:27.781Z,36.40
2019-04-16T05:08:54.138Z,37.17
2019-04-16T05:11:23.310Z,38.37
2019-04-16T05:13:49.520Z,33.37
2019-04-16T05:16:19.844Z,36.17
2019-04-16T05:18:43.766Z,39.40
2019-04-16T05:21:09.909Z,36.07
2019-04-16T05:23:37.753Z,36.40
2019-04-16T05:26:04.841Z,35.23
2019-04-16T05:28:31.605Z,34.03
2019-04-16T05:30:57.825Z,35.10
2019-04-16T05:33:23.967Z,33.90
2019-04-16T05:35:50.175Z,36.47
2019-04-16T05:38:20.443Z,36.27
2019-04-16T05:40:45.743Z,35.80
2019-04-16T05:43:12.016Z,33.93
2019-04-16T05:45:38.400Z,31.87
2019-04-16T05:48:04.668Z,35.33
2019-04-16T05:50:30.907Z,31.97
2019-04-16T05:52:57.132Z,31.20
2019-04-16T05:55:28.271Z,29.63
2019-04-16T05:57:58.175Z,30.07
2019-04-16T06:00:28.679Z,30.63
2019-04-16T06:02:54.895Z,33.77
2019-04-16T06:05:21.043Z,32.87
2019-04-16T06:07:47.139Z,31.10
2019-04-16T06:10:17.091Z,37.40
2019-04-16T06:12:43.374Z,32.20
2019-04-16T06:15:11.700Z,33.20
2019-04-16T06:17:42.779Z,32.33
2019-04-16T06:20:19.012Z,35.40
2019-04-16T06:22:49.491Z,45.97
2019-04-16T06:25:26.448Z,27.83
2019-04-16T06:28:03.287Z,38.90
2019-04-16T06:30:46.273Z,34.30
2019-04-16T06:33:17.101Z,29.57
2019-04-16T06:35:53.916Z,30.90
2019-04-16T06:38:21.937Z,28.93
2019-04-16T06:40:56.176Z,32.90
2019-04-16T06:43:26.510Z,32.07
2019-04-16T06:46:10.690Z,34.80
2019-04-16T06:48:50.701Z,32.23
2019-04-16T06:51:35.355Z,33.97
2019-04-16T06:54:19.845Z,29.23
2019-04-16T06:56:50.376Z,33.33
2019-04-16T06:59:18.085Z,31.77
2019-04-16T07:01:55.771Z,31.40
2019-04-16T07:04:24.370Z,30.63
2019-04-16T07:07:09.489Z,31.83
2019-04-16T07:09:41.837Z,26.67
2019-04-16T07:12:07.822Z,30.83
2019-04-16T07:14:36.169Z,29.77
2019-04-16T07:17:02.982Z,27.57
2019-04-16T07:19:29.753Z,25.50
2019-04-16T07:21:56.345Z,30.43
2019-04-16T07:24:23.622Z,35.43
2019-04-16T07:26:50.769Z,30.50
2019-04-16T07:29:34.187Z,31.57
2019-04-16T07:32:03.109Z,30.77
2019-04-16T07:34:31.750Z,28.17
2019-04-16T07:37:09.039Z,29.73
2019-04-16T07:39:52.301Z,28.37
2019-04-16T07:42:22.103Z,29.73
2019-04-16T07:45:11.461Z,30.17
2019-04-16T07:47:52.868Z,31.93
2019-04-16T07:50:24.205Z,32.93
2019-04-16T07:52:52.957Z,34.20
2019-04-16T07:55:37.929Z,29.57
2019-04-16T07:58:04.822Z,33.03
2019-04-16T08:00:31.514Z,29.30
2019-04-16T08:02:58.206Z,33.50
2019-04-16T08:05:27.695Z,36.40
2019-04-16T08:07:53.836Z,32.33
2019-04-16T08:10:21.565Z,28.27
2019-04-16T08:12:50.059Z,33.23
2019-04-16T08:15:16.844Z,37.00
2019-04-16T08:17:43.536Z,30.47
2019-04-16T08:20:10.602Z,31.40
2019-04-16T08:22:39.914Z,31.87
2019-04-16T08:25:06.345Z,36.53
2019-04-16T08:27:32.890Z,30.33
2019-04-16T08:30:03.431Z,31.77
2019-04-16T08:32:28.062Z,30.50
2019-04-16T08:34:54.600Z,37.87
2019-04-16T08:37:21.398Z,35.43
2019-04-16T08:39:48.136Z,31.70
2019-04-16T08:42:14.746Z,36.27
2019-04-16T08:44:41.651Z,33.47
2019-04-16T08:47:11.532Z,32.00
2019-04-16T08:49:36.752Z,33.67
2019-04-16T08:52:03.374Z,33.53
2019-04-16T08:54:30.890Z,33.53
2019-04-16T08:56:57.641Z,34.43
2019-04-16T08:59:24.358Z,39.77
2019-04-16T09:01:51.450Z,33.73
2019-04-16T09:04:19.254Z,32.60
2019-04-16T09:06:47.117Z,27.93
2019-04-16T09:09:24.437Z,35.40
2019-04-16T09:11:52.025Z,38.20
2019-04-16T09:14:20.923Z,32.73
2019-04-16T09:16:49.179Z,32.20
2019-04-16T09:19:17.755Z,35.90
2019-04-16T09:21:44.672Z,33.40
2019-04-16T09:24:18.914Z,30.63
2019-04-16T09:26:47.894Z,33.20
2019-04-16T09:29:21.989Z,33.03
2019-04-16T09:31:55.448Z,32.90
2019-04-16T09:34:35.731Z,34.53
2019-04-16T09:37:03.698Z,35.83
2019-04-16T09:39:34.883Z,34.17
2019-04-16T09:42:01.458Z,31.17
2019-04-16T09:44:31.530Z,36.40
2019-04-16T09:46:59.551Z,37.37
2019-04-16T09:49:25.016Z,35.43
2019-04-16T09:51:51.724Z,36.17
2019-04-16T09:54:18.310Z,32.30
2019-04-16T09:56:45.129Z,33.77
2019-04-16T09:59:15.833Z,37.73
2019-04-16T10:01:44.040Z,35.30
2019-04-16T10:04:15.111Z,35.83
2019-04-16T10:06:41.936Z,38.37
2019-04-16T10:09:08.814Z,33.63
2019-04-16T10:11:36.485Z,35.77
2019-04-16T10:14:03.269Z,35.13
2019-04-16T10:16:29.846Z,34.77
2019-04-16T10:18:56.551Z,35.40
2019-04-16T10:21:23.379Z,37.47
2019-04-16T10:24:06.629Z,33.93
2019-04-16T10:26:33.227Z,35.83
2019-04-16T10:29:01.775Z,41.30
2019-04-16T10:31:28.300Z,34.93
2019-04-16T10:33:54.887Z,36.20
2019-04-16T10:36:21.930Z,33.33
2019-04-16T10:38:50.705Z,33.33
2019-04-16T10:41:19.230Z,39.17
2019-04-16T10:43:47.731Z,33.93
2019-04-16T10:46:34.201Z,37.73
2019-04-16T10:49:21.225Z,37.17
2019-04-16T10:52:01.735Z,36.40
2019-04-16T10:54:39.024Z,37.73
2019-04-16T10:57:27.597Z,37.87
2019-04-16T10:59:56.451Z,42.23
2019-04-16T11:02:34.265Z,36.33
2019-04-16T11:05:11.306Z,40.93
2019-04-16T11:07:39.558Z,40.17
2019-04-16T11:10:06.581Z,40.97
2019-04-16T11:12:37.430Z,43.63
2019-04-16T11:15:01.810Z,44.80
2019-04-16T11:17:28.712Z,44.97
2019-04-16T11:19:55.245Z,41.57
2019-04-16T11:22:22.093Z,39.00
2019-04-16T11:24:48.750Z,40.87
2019-04-16T11:27:15.553Z,42.10
2019-04-16T11:29:42.737Z,43.87
2019-04-16T11:32:10.641Z,43.67
2019-04-16T11:34:37.370Z,40.40
2019-04-16T11:37:08.161Z,46.30
2019-04-16T11:39:32.704Z,43.23
2019-04-16T11:41:59.141Z,43.10
2019-04-16T11:44:27.223Z,41.53
2019-04-16T11:46:53.913Z,41.37
2019-04-16T11:49:20.731Z,41.83
2019-04-16T11:51:47.790Z,46.97
2019-04-16T11:54:14.437Z,42.00
2019-04-16T11:56:42.689Z,43.83
2019-04-16T11:59:09.484Z,45.37
2019-04-16T12:01:46.824Z,40.80
2019-04-16T12:04:23.374Z,40.17
2019-04-16T12:07:06.832Z,48.87
2019-04-16T12:09:35.448Z,47.47
2019-04-16T12:12:09.715Z,43.90
2019-04-16T12:14:43.810Z,42.93
2019-04-16T12:17:12.180Z,41.13
2019-04-16T12:19:44.911Z,40.13
2019-04-16T12:22:22.354Z,45.07
2019-04-16T12:24:50.799Z,45.37
2019-04-16T12:27:22.313Z,41.20
2019-04-16T12:29:56.774Z,42.10
2019-04-16T12:32:27.065Z,43.23
2019-04-16T12:34:55.605Z,46.53
2019-04-16T12:37:43.469Z,44.77
2019-04-16T12:40:18.925Z,45.93
2019-04-16T12:42:47.915Z,45.47
2019-04-16T12:45:16.616Z,47.17
2019-04-16T12:47:47.673Z,43.43
2019-04-16T12:50:17.134Z,42.10
2019-04-16T12:52:59.063Z,45.60
2019-04-16T12:55:43.962Z,44.53
2019-04-16T12:58:20.018Z,44.03
2019-04-16T13:00:54.551Z,45.47
2019-04-16T13:03:23.172Z,49.03
2019-04-16T13:06:08.651Z,50.27
2019-04-16T13:08:42.994Z,44.13
2019-04-16T13:11:14.376Z,49.87
2019-04-16T13:13:59.342Z,45.07
2019-04-16T13:16:44.462Z,45.10
2019-04-16T13:19:31.003Z,45.87
2019-04-16T13:22:00.078Z,44.03
2019-04-16T13:24:29.109Z,43.03
2019-04-16T13:27:06.185Z,47.43
2019-04-16T13:29:32.765Z,42.60
2019-04-16T13:31:59.135Z,42.43
2019-04-16T13:34:25.869Z,42.53
2019-04-16T13:36:52.384Z,43.17
2019-04-16T13:39:20.911Z,40.60
2019-04-16T13:41:47.607Z,40.80
2019-04-16T13:44:17.281Z,42.03
2019-04-16T13:46:44.262Z,42.10
2019-04-16T13:49:15.495Z,42.07
2019-04-16T13:51:44.960Z,37.43
2019-04-16T13:54:19.254Z,35.60
2019-04-16T13:56:50.610Z,35.03
2019-04-16T13:59:17.785Z,36.77
2019-04-16T14:01:59.086Z,34.27
2019-04-16T14:04:30.242Z,42.87
2019-04-16T14:06:54.261Z,34.50
2019-04-16T14:09:20.804Z,35.90
2019-04-16T14:11:50.980Z,39.67
2019-04-16T14:31:25.625Z,38.33
2019-04-16T14:33:53.730Z,44.00
2019-04-16T14:36:20.913Z,39.20
2019-04-16T14:38:50.496Z,37.73
2019-04-16T14:41:17.245Z,34.57
2019-04-16T14:43:45.720Z,39.03
2019-04-16T14:46:12.452Z,42.07
2019-04-16T14:48:42.724Z,35.67
2019-04-16T14:51:07.796Z,37.27
2019-04-16T14:53:47.238Z,35.73
2019-04-16T14:56:18.378Z,35.93
2019-04-16T14:58:46.922Z,36.67
2019-04-16T15:01:21.382Z,40.80
2019-04-16T15:03:49.752Z,33.13
2019-04-16T15:06:35.061Z,36.87
2019-04-16T15:09:12.127Z,39.03
2019-04-16T15:11:58.283Z,39.30
2019-04-16T15:14:29.809Z,40.07
2019-04-16T15:17:00.949Z,36.03
2019-04-16T15:19:29.295Z,38.27
2019-04-16T15:22:14.518Z,42.50
2019-04-16T15:24:52.024Z,37.57
2019-04-16T15:27:36.798Z,43.53
2019-04-16T15:30:07.938Z,41.13
2019-04-16T15:32:42.261Z,36.43
2019-04-16T15:35:14.888Z,38.13
2019-04-16T15:38:00.239Z,38.40
2019-04-16T15:40:28.359Z,37.03
2019-04-16T15:42:59.413Z,35.17
2019-04-16T15:45:29.066Z,36.87
2019-04-16T15:48:09.843Z,39.87
2019-04-16T15:50:47.202Z,36.47
2019-04-16T15:53:30.020Z,34.77
2019-04-16T15:55:58.290Z,33.70
2019-04-16T15:58:41.368Z,36.70
2019-04-16T16:01:10.525Z,37.63
2019-04-16T16:03:55.546Z,37.00
2019-04-16T16:06:23.783Z,35.87
2019-04-16T16:08:51.817Z,39.23
2019-04-16T16:11:19.907Z,36.60
2019-04-16T16:13:46.427Z,35.37
2019-04-16T16:16:17.649Z,39.13
2019-04-16T16:18:40.910Z,41.17
2019-04-16T16:21:07.222Z,38.73
2019-04-16T16:23:34.290Z,38.57
2019-04-16T16:26:00.600Z,37.53
2019-04-16T16:28:26.894Z,38.13
2019-04-16T16:30:53.097Z,40.07
2019-04-16T16:33:19.330Z,42.10
2019-04-16T16:35:57.011Z,39.20
2019-04-16T16:38:14.063Z,37.70
2019-04-16T16:40:41.054Z,38.73
2019-04-16T16:43:08.739Z,36.33
2019-04-16T16:45:39.636Z,40.47
2019-04-16T16:48:06.007Z,37.57
2019-04-16T16:50:32.388Z,41.50
2019-04-16T16:53:00.596Z,43.10
2019-04-16T16:55:28.779Z,45.87
2019-04-16T16:57:59.680Z,44.07
2019-04-16T17:00:44.499Z,42.33
2019-04-16T17:03:18.473Z,43.23
2019-04-16T17:05:44.801Z,41.23
2019-04-16T17:08:11.364Z,44.30
2019-04-16T17:10:37.646Z,44.13
2019-04-16T17:13:03.887Z,43.13
2019-04-16T17:15:30.210Z,40.93
2019-04-16T17:17:56.386Z,43.83
2019-04-16T17:20:22.739Z,39.10
2019-04-16T17:22:49.058Z,42.73
2019-04-16T17:25:15.337Z,43.83
2019-04-16T17:27:51.142Z,40.67
2019-04-16T17:30:09.949Z,45.00
2019-04-16T17:32:36.113Z,44.27
2019-04-16T17:35:06.418Z,42.90
2019-04-16T17:37:30.969Z,47.07
2019-04-16T17:39:59.173Z,46.33
2019-04-16T17:42:37.647Z,44.63
2019-04-16T17:45:23.250Z,48.83
2019-04-16T17:47:51.524Z,47.40
2019-04-16T17:50:19.814Z,43.53
2019-04-16T17:52:53.538Z,46.83
2019-04-16T17:55:24.583Z,44.23
2019-04-16T17:57:55.484Z,44.17
2019-04-16T18:00:34.616Z,44.77
2019-04-16T18:03:19.091Z,45.57
2019-04-16T18:05:47.246Z,43.37
2019-04-16T18:08:32.019Z,47.80
2019-04-16T18:11:03.061Z,43.73
2019-04-16T18:13:38.859Z,44.20
2019-04-16T18:16:07.111Z,47.90
2019-04-16T18:18:53.170Z,42.83
2019-04-16T18:21:37.790Z,46.03
2019-04-16T18:24:05.942Z,45.13
2019-04-16T18:26:50.537Z,44.80
2019-04-16T18:29:18.551Z,42.37
2019-04-16T18:31:52.413Z,41.20
2019-04-16T18:34:19.275Z,44.03
2019-04-16T18:37:04.185Z,45.23
2019-04-16T18:39:41.136Z,44.83
2019-04-16T18:42:21.160Z,47.47
2019-04-16T18:45:01.263Z,49.83
2019-04-16T18:47:34.969Z,46.73
2019-04-16T18:50:03.205Z,47.67
2019-04-16T18:52:29.445Z,49.13
2019-04-16T18:54:55.701Z,55.33
2019-04-16T18:57:22.056Z,48.93
2019-04-16T18:59:48.275Z,52.27
2019-04-16T19:02:14.753Z,54.80
2019-04-16T19:04:40.950Z,49.27
2019-04-16T19:07:07.332Z,48.73
2019-04-16T19:09:33.509Z,56.00
2019-04-16T19:11:59.798Z,49.87
2019-04-16T19:14:26.027Z,50.17
2019-04-16T19:16:52.438Z,48.90
2019-04-16T19:19:21.857Z,47.97
2019-04-16T19:21:51.293Z,53.13
2019-04-16T19:24:14.925Z,53.83
2019-04-16T19:26:41.297Z,48.70
2019-04-16T19:29:13.252Z,46.80
2019-04-16T19:31:39.065Z,48.33
2019-04-16T19:34:09.291Z,47.97
2019-04-16T19:36:33.429Z,51.03
2019-04-16T19:38:59.818Z,49.30
2019-04-16T19:41:25.960Z,48.27
2019-04-16T19:43:52.222Z,53.37
2019-04-16T19:46:18.440Z,55.37
2019-04-16T19:51:09.953Z,53.37
2019-04-16T19:53:36.073Z,52.90
2019-04-16T19:56:02.503Z,56.77
2019-04-16T19:58:30.097Z,51.60
2019-04-16T20:00:57.336Z,49.63
2019-04-16T20:03:24.704Z,51.63
2019-04-16T20:05:53.092Z,51.50
2019-04-16T20:08:19.332Z,52.23
2019-04-16T20:10:48.572Z,53.83
2019-04-16T20:13:13.728Z,52.93
2019-04-16T20:15:43.179Z,49.60
2019-04-16T20:18:07.865Z,54.57
2019-04-16T20:20:34.027Z,56.60
2019-04-16T20:23:00.178Z,52.93
2019-04-16T20:25:26.314Z,48.17
2019-04-16T20:27:52.565Z,50.03
2019-04-16T20:30:22.959Z,47.87
2019-04-16T20:32:46.911Z,49.27
2019-04-16T20:35:17.888Z,51.27
2019-04-16T20:37:41.212Z,48.23
2019-04-16T20:40:07.372Z,50.27
2019-04-16T20:42:33.620Z,54.10
2019-04-16T20:44:59.751Z,48.67
2019-04-16T20:47:26.075Z,50.77
2019-04-16T20:49:52.307Z,55.57
2019-04-16T20:52:18.436Z,48.83
2019-04-16T20:54:49.243Z,49.73
2019-04-16T20:57:15.472Z,53.17
2019-04-16T20:59:41.689Z,48.13
2019-04-16T21:02:07.846Z,52.23
2019-04-16T21:04:34.174Z,50.73
2019-04-16T21:07:00.419Z,54.33
2019-04-16T21:09:26.778Z,56.00
2019-04-16T21:11:54.703Z,46.73
2019-04-16T21:14:21.799Z,55.73
2019-04-16T21:16:48.877Z,55.33
2019-04-16T21:19:22.888Z,55.63
2019-04-16T21:21:43.039Z,53.10
2019-04-16T21:24:11.644Z,50.63
2019-04-16T21:26:37.313Z,50.80
2019-04-16T21:29:08.111Z,51.90
2019-04-16T21:31:36.312Z,54.17
2019-04-16T21:34:13.244Z,50.67
2019-04-16T21:36:47.122Z,55.07
2019-04-16T21:39:17.542Z,56.00
2019-04-16T21:41:43.273Z,55.40
2019-04-16T21:44:13.047Z,53.43
2019-04-16T21:46:37.438Z,55.53
2019-04-16T21:49:07.315Z,57.83
2019-04-16T21:51:31.741Z,58.70
2019-04-16T21:53:58.838Z,55.70
2019-04-16T21:56:25.143Z,58.17
2019-04-16T21:58:51.406Z,55.13
2019-04-16T22:01:25.594Z,58.30
2019-04-16T22:03:53.734Z,59.37
2019-04-16T22:06:20.985Z,56.27
2019-04-16T22:08:47.227Z,58.50
2019-04-16T22:11:13.332Z,57.80
2019-04-16T22:13:39.444Z,64.30
2019-04-16T22:16:06.205Z,66.87
2019-04-16T22:18:32.421Z,58.47
2019-04-16T22:20:58.648Z,60.97
2019-04-16T22:23:24.871Z,66.43
2019-04-16T22:25:50.998Z,67.37
2019-04-16T22:28:17.135Z,64.60
2019-04-16T22:30:43.384Z,80.20
2019-04-16T22:33:09.592Z,83.00
2019-04-16T22:35:35.732Z,82.57
2019-04-16T22:38:01.868Z,74.17
2019-04-16T22:40:32.854Z,67.63
2019-04-16T22:43:12.847Z,75.70
2019-04-16T22:45:52.165Z,76.50
2019-04-16T22:48:17.978Z,78.00
2019-04-16T22:50:44.200Z,78.87
2019-04-16T22:53:10.424Z,74.03
2019-04-16T22:55:36.969Z,75.23
2019-04-16T22:58:04.769Z,73.97
2019-04-16T23:00:36.142Z,80.07
2019-04-16T23:03:02.802Z,81.27
2019-04-16T23:05:30.999Z,83.60
2019-04-16T23:07:57.114Z,91.17
2019-04-16T23:10:23.245Z,91.93
2019-04-16T23:12:49.477Z,101.90
2019-04-16T23:15:15.603Z,96.73
2019-04-16T23:17:42.792Z,100.57
2019-04-16T23:20:09.927Z,105.83
2019-04-16T23:22:36.148Z,103.37
2019-04-16T23:25:03.502Z,103.50
2019-04-16T23:27:29.722Z,106.67
2019-04-16T23:29:55.824Z,106.53
2019-04-16T23:32:27.633Z,96.20
2019-04-16T23:34:50.075Z,97.37
2019-04-16T23:37:16.283Z,103.53
2019-04-16T23:39:42.433Z,89.53
2019-04-16T23:42:08.563Z,98.37
2019-04-16T23:44:36.686Z,88.10
2019-04-16T23:47:11.714Z,90.60
2019-04-16T23:49:45.705Z,95.27
2019-04-16T23:52:19.677Z,92.77
2019-04-16T23:55:06.126Z,82.90
2019-04-16T23:57:35.968Z,88.27
